Buoy 47557

sailwx.info

Track history (hours):
 
Tides and Currents Weather Stations Pressure Air Temp Water Temp Dewpoint Dewpoint Depression Visibility Wind Speed Wind Dir Waves Ship Positions

Drifting buoy 47557

Last reported at 2017-Jul-22 04:00 UTC. Time now 2017-Jul-22 06:51 UTC.
Position N 55°05' W 011°01'.

Barometer 1005.7 mb
Water temperature 13.9 ° C

Date/timePositionNaut miles runAvg speedWind from/ knotsBaromVisibWave heightAir tempDewpointWater temp
2017-Jul-22 04:00N 55°05' W 011°01'1 0.7 1005.7 13.9
2017-Jul-22 03:00N 55°06' W 011°02'1 0.7 1005.6 13.9
2017-Jul-22 02:00N 55°07' W 011°02'1 0.3 1005.0 13.9
2017-Jul-22 00:00N 55°07' W 011°02'1 0.6 1004.4 13.9
2017-Jul-21 23:00N 55°08' W 011°02'0 0.0 1004.4 13.9
2017-Jul-21 22:00N 55°08' W 011°02'1 0.7 1004.1 13.9
2017-Jul-21 21:00N 55°08' W 011°02'1 0.9 1003.4 13.9
2017-Jul-21 20:00N 55°09' W 011°01'2 0.8 1002.6 13.9
2017-Jul-21 18:00N 55°10' W 010°59'2 1.0 1001.4 13.9
2017-Jul-21 16:00N 55°12' W 010°58'1 0.7 1000.9 13.9
2017-Jul-21 15:00N 55°13' W 010°57'1 1.2 1001.1 13.9
2017-Jul-21 14:00N 55°14' W 010°57'1 0.7 1001.1 13.9
2017-Jul-21 13:00N 55°14' W 010°56'1 1.2 1000.9 14.0
2017-Jul-21 12:00N 55°16' W 010°56'1 0.7 1000.9 14.0
2017-Jul-21 11:00N 55°16' W 010°57'1 0.6 1001.1 14.0
2017-Jul-21 10:00N 55°17' W 010°57'1 0.6 1001.2 14.0
2017-Jul-21 09:00N 55°17' W 010°57'1 0.6 1001.4 14.0
2017-Jul-21 08:00N 55°18' W 010°57'1 0.7 1001.6 14.0
2017-Jul-21 07:00N 55°19' W 010°56'1 0.7 1000.8 13.9
2017-Jul-21 06:00N 55°19' W 010°56'1 0.7 1000.5 13.9
2017-Jul-21 05:00N 55°20' W 010°55'0 0.3 1000.3 14.0
2017-Jul-21 04:00N 55°20' W 010°55'1 0.7 1000.0 14.0
2017-Jul-21 03:00N 55°20' W 010°54'1 1.2 1000.1 14.0
2017-Jul-21 02:00N 55°22' W 010°54'1 0.6 1000.4 14.0
2017-Jul-21 01:00N 55°22' W 010°54'1 1.2 1000.4 14.0
2017-Jul-21 00:00N 55°23' W 010°55'2 0.7 1000.6 14.0
2017-Jul-20 21:00N 55°25' W 010°56'0 0.3 1000.6 14.0
2017-Jul-20 20:00N 55°25' W 010°57'0 0.3 1000.5 14.1
2017-Jul-20 19:00N 55°25' W 010°58'1 0.7 1000.5 14.1
2017-Jul-20 18:00N 55°26' W 010°58'0 0.0 1000.6 14.1
2017-Jul-20 17:00N 55°26' W 010°58'0 0.3 1000.6 14.1
2017-Jul-20 16:00N 55°26' W 010°58'1 0.6 1000.8 14.1
2017-Jul-20 15:00N 55°26' W 010°58'1 0.6 1001.1 14.1
2017-Jul-20 14:00N 55°27' W 010°58'1 0.6 1001.3 14.0
2017-Jul-20 13:00N 55°28' W 010°58'1 0.7 1001.6 14.0
2017-Jul-20 12:00N 55°28' W 010°58'1 1.2 1001.9 14.0
2017-Jul-20 11:00N 55°29' W 010°58'1 1.4 1002.0 13.9
2017-Jul-20 10:00N 55°31' W 010°59'1 0.9 1002.0 13.9
2017-Jul-20 09:00N 55°31' W 011°01'1 1.4 1002.5 13.9
2017-Jul-20 08:00N 55°32' W 011°02'1 0.9 1002.6 13.8
2017-Jul-20 07:00N 55°33' W 011°03'0 0.3 1002.7 13.8
2017-Jul-20 06:00N 55°33' W 011°04'1 0.7 1002.8 13.8
2017-Jul-20 05:00N 55°34' W 011°04'0 0.3 1002.8 13.8
2017-Jul-20 04:00N 55°34' W 011°05'0 0.3 1002.7 13.8
2017-Jul-20 03:00N 55°34' W 011°05'1 0.7 1002.8 13.9
2017-Jul-20 02:00N 55°34' W 011°06'1 0.6 1003.3 13.9
2017-Jul-20 01:00N 55°35' W 011°06'1 0.6 1003.5 13.9
2017-Jul-20 00:00N 55°35' W 011°06'1 0.6 1003.3 13.9
2017-Jul-19 23:00N 55°36' W 011°06'1 1.2 1003.1 13.9
2017-Jul-19 22:00N 55°37' W 011°06'1 1.4 1002.8 14.0
2017-Jul-19 21:00N 55°38' W 011°07'1 1.2 1002.6 14.0
2017-Jul-19 20:00N 55°40' W 011°08'2 1.6 1002.0 14.0
2017-Jul-19 19:00N 55°41' W 011°10'1 1.4 1001.2 14.1
2017-Jul-19 18:00N 55°42' W 011°11'1 0.9 1000.2 14.1
2017-Jul-19 17:00N 55°43' W 011°12'1 0.7 999.2 14.1
2017-Jul-19 15:00N 55°43' W 011°14'1 0.7 997.4 14.2
2017-Jul-19 14:00N 55°44' W 011°15'1 0.7 996.2 14.2
2017-Jul-19 13:00N 55°44' W 011°14'1 0.6 996.1 14.2
2017-Jul-19 12:00N 55°45' W 011°14'1 0.7 996.7 14.2
2017-Jul-19 11:00N 55°46' W 011°15'1 0.7 997.4 14.2
2017-Jul-19 10:00N 55°46' W 011°16'1 0.7 998.0 14.2
2017-Jul-19 09:00N 55°47' W 011°16'1 0.7 998.5 14.2
2017-Jul-19 08:00N 55°47' W 011°17'0 0.3 999.1 14.1
2017-Jul-19 07:00N 55°47' W 011°17'0 0.3 999.4 14.1
2017-Jul-19 06:00N 55°47' W 011°18'1 0.7 999.5 14.1
2017-Jul-19 05:00N 55°48' W 011°19'0 0.2 1000.1 14.2
2017-Jul-19 03:00N 55°48' W 011°19'0 0.3 1001.4 14.2
2017-Jul-19 02:00N 55°48' W 011°20'1 0.6 1002.1 14.2
2017-Jul-19 01:00N 55°49' W 011°20'0 0.0 1002.7 14.2
2017-Jul-19 00:00N 55°49' W 011°20'0 0.0 1003.5 14.2
2017-Jul-18 23:00N 55°49' W 011°20'1 0.6 1004.0 14.3
2017-Jul-18 22:00N 55°49' W 011°20'1 0.6 1004.7 14.2
2017-Jul-18 21:00N 55°50' W 011°20'1 0.6 1005.6 14.3
2017-Jul-18 20:00N 55°50' W 011°20'1 0.7 1006.2 14.3
2017-Jul-18 18:00N 55°52' W 011°21'1 0.5 1007.2 14.3
2017-Jul-18 16:00N 55°52' W 011°23'0 0.3 1008.7 14.3
2017-Jul-18 15:00N 55°52' W 011°23'0 0.3 1009.4 14.3
2017-Jul-18 14:00N 55°52' W 011°24'0 0.0 1010.0 14.2
2017-Jul-18 13:00N 55°52' W 011°24'3 0.4 1010.7 14.2
2017-Jul-18 05:00N 55°53' W 011°28'0 0.3 1015.2 14.1
2017-Jul-18 04:00N 55°53' W 011°29'0 0.0 1015.8 14.1
2017-Jul-18 03:00N 55°53' W 011°29'0 0.3 1016.7 14.2
2017-Jul-18 02:00N 55°53' W 011°29'1 0.3 1017.5 14.2
2017-Jul-18 00:00N 55°53' W 011°30'1 0.6 1019.1 14.2
2017-Jul-17 23:00N 55°53' W 011°30'0 0.3 1019.5 14.3
2017-Jul-17 22:00N 55°53' W 011°31'0 0.3 1020.2 14.3
2017-Jul-17 21:00N 55°53' W 011°31'1 0.7 1020.8 14.3
2017-Jul-17 20:00N 55°54' W 011°32'0 0.3 1021.2 14.3
2017-Jul-17 19:00N 55°54' W 011°32'1 0.7 1021.6 14.4
2017-Jul-17 18:00N 55°54' W 011°34'0 0.3 1021.8 14.3
2017-Jul-17 17:00N 55°54' W 011°34'0 0.3 1022.2 14.2
2017-Jul-17 16:00N 55°54' W 011°35'0 0.3 1022.6 14.1
2017-Jul-17 15:00N 55°54' W 011°35'0 0.3 1022.9 14.0
2017-Jul-17 14:00N 55°54' W 011°36'0 0.2 1023.2 13.8
2017-Jul-17 12:00N 55°54' W 011°37'1 0.7 1023.2 13.8
2017-Jul-17 11:00N 55°55' W 011°37'0 0.3 1023.3 13.8
2017-Jul-17 10:00N 55°55' W 011°38'1 0.9 1023.4 13.7
2017-Jul-17 09:00N 55°55' W 011°39'1 0.7 1023.4 13.8
2017-Jul-17 08:00N 55°55' W 011°40'1 0.7 1023.3 13.8
2017-Jul-17 07:00N 55°55' W 011°41'1 0.7 1023.2 13.8
2017-Jul-17 06:00N 55°56' W 011°42'1 0.7 1022.8 13.8
2017-Jul-17 04:00N 55°56' W 011°44'1 0.7 1022.7 13.9
2017-Jul-17 03:00N 55°56' W 011°46'0 0.3 1022.6 13.9
2017-Jul-17 02:00N 55°56' W 011°46'1 0.9 1022.6 13.9
2017-Jul-17 01:00N 55°55' W 011°47'0 0.3 1022.7 13.9
2017-Jul-17 00:00N 55°55' W 011°48'0 0.3 1022.5 13.9
2017-Jul-16 23:00N 55°55' W 011°49'1 0.7 1022.4 13.9
2017-Jul-16 22:00N 55°55' W 011°50'0 0.3 1022.4 13.9
2017-Jul-16 21:00N 55°55' W 011°50'1 0.3 1022.3 13.9
2017-Jul-16 19:00N 55°55' W 011°52'1 0.9 1021.9 13.9
2017-Jul-16 18:00N 55°56' W 011°53'1 0.7 1021.8 13.9
2017-Jul-16 17:00N 55°56' W 011°54'1 0.7 1022.1 13.9
2017-Jul-16 16:00N 55°56' W 011°55'1 1.0 1022.1 14.0
2017-Jul-16 15:00N 55°56' W 011°57'1 0.7 1022.1 14.0
2017-Jul-16 14:00N 55°56' W 011°58'1 0.7 1022.0 14.0
2017-Jul-16 13:00N 55°56' W 011°59'1 0.7 1021.9 14.0
2017-Jul-16 12:00N 55°56' W 012°01'1 0.7 1021.5 14.0
2017-Jul-16 10:00N 55°55' W 012°03'1 0.7 1021.0 13.9
2017-Jul-16 09:00N 55°55' W 012°04'1 0.7 1020.9 13.9
2017-Jul-16 08:00N 55°55' W 012°05'1 0.7 1020.5 13.9
2017-Jul-16 07:00N 55°54' W 012°05'1 0.7 1020.0 13.9
2017-Jul-16 06:00N 55°54' W 012°07'0 0.3 1019.7 13.9
2017-Jul-16 05:00N 55°54' W 012°07'1 0.3 1019.2 13.8
2017-Jul-16 03:00N 55°54' W 012°08'1 0.7 1018.1 13.8
2017-Jul-16 02:00N 55°54' W 012°10'1 0.7 1017.7 13.8
2017-Jul-16 00:00N 55°53' W 012°12'1 0.9 1016.8 13.8
2017-Jul-15 23:00N 55°53' W 012°13'1 0.9 1016.5 13.8
2017-Jul-15 22:00N 55°52' W 012°14'1 0.7 1015.9 13.9
2017-Jul-15 21:00N 55°52' W 012°15'1 0.9 1015.5 13.9
2017-Jul-15 20:00N 55°51' W 012°16'1 0.7 1015.0 13.9
2017-Jul-15 19:00N 55°51' W 012°17'1 0.7 1014.6 13.9
2017-Jul-15 18:00N 55°50' W 012°18'1 0.7 1014.2 13.9
2017-Jul-15 17:00N 55°50' W 012°19'1 0.6 1013.7 13.9
2017-Jul-15 15:00N 55°50' W 012°21'1 0.9 1012.8 13.9
2017-Jul-15 14:00N 55°49' W 012°22'0 0.3 1012.1 13.8
2017-Jul-15 13:00N 55°49' W 012°23'1 0.7 1011.1 13.8
2017-Jul-15 12:00N 55°49' W 012°24'1 0.9 1010.1 13.8
2017-Jul-15 11:00N 55°49' W 012°25'1 0.7 1009.6 13.8
2017-Jul-15 10:00N 55°49' W 012°26'1 0.7 1008.0 13.7
2017-Jul-15 09:00N 55°48' W 012°27'1 0.9 1007.4 13.7
2017-Jul-15 08:00N 55°47' W 012°28'1 0.6 1006.4 13.7
2017-Jul-15 06:00N 55°47' W 012°30'2 0.8 1007.6 13.7
2017-Jul-15 03:00N 55°46' W 012°34'1 0.7 1009.9 13.8
2017-Jul-15 02:00N 55°45' W 012°34'1 0.9 1010.4 13.8
2017-Jul-15 01:00N 55°44' W 012°35'0 0.3 1011.4 13.8
2017-Jul-15 00:00N 55°44' W 012°36'3 0.9 1011.8 13.8
2017-Jul-14 21:00N 55°43' W 012°40'1 0.9 1011.8 13.7
2017-Jul-14 20:00N 55°43' W 012°41'1 1.2 1011.2 13.7
2017-Jul-14 19:00N 55°42' W 012°43'1 0.9 1011.6 13.7
2017-Jul-14 18:00N 55°41' W 012°44'1 0.9 1011.3 13.7
2017-Jul-14 17:00N 55°41' W 012°46'1 1.2 1011.6 13.7
2017-Jul-14 16:00N 55°40' W 012°47'1 0.9 1011.9 13.7
2017-Jul-14 15:00N 55°40' W 012°49'1 0.9 1012.2 13.7
2017-Jul-14 14:00N 55°39' W 012°50'1 1.2 1012.3 13.7
2017-Jul-14 13:00N 55°38' W 012°52'1 0.9 1012.8 13.7
2017-Jul-14 12:00N 55°38' W 012°53'2 1.2 1013.2 13.7
2017-Jul-14 10:00N 55°36' W 012°56'1 1.4 1014.7 13.7
2017-Jul-14 09:00N 55°36' W 012°58'1 1.2 1015.2 13.7
2017-Jul-14 08:00N 55°35' W 013°00'1 1.5 1015.9 13.7
2017-Jul-14 07:00N 55°35' W 013°02'2 1.8 1016.4 13.8
2017-Jul-14 06:00N 55°34' W 013°05'1 1.5 1017.1 13.8
2017-Jul-14 05:00N 55°33' W 013°07'2 1.8 1017.8 13.9
2017-Jul-14 04:00N 55°32' W 013°10'1 1.2 1018.2 13.9
2017-Jul-14 03:00N 55°31' W 013°11'1 0.9 1018.8 13.9
2017-Jul-14 02:00N 55°31' W 013°13'1 0.9 1019.1 13.9
2017-Jul-14 01:00N 55°30' W 013°14'1 0.7 1019.6 13.9
2017-Jul-14 00:00N 55°30' W 013°15'1 1.2 1019.8 13.9
2017-Jul-13 23:00N 55°29' W 013°17'1 1.0 1019.6 13.8
2017-Jul-13 22:00N 55°29' W 013°19'1 1.0 1019.4 13.8
2017-Jul-13 21:00N 55°29' W 013°20'1 1.4 1019.0 13.8
2017-Jul-13 20:00N 55°29' W 013°23'1 1.0 1018.8 13.7
2017-Jul-13 19:00N 55°29' W 013°25'1 1.4 1018.5 13.7
2017-Jul-13 18:00N 55°29' W 013°27'1 1.5 1018.1 13.7
2017-Jul-13 17:00N 55°29' W 013°29'1 1.0 1018.1 13.7
2017-Jul-13 16:00N 55°29' W 013°31'1 1.2 1018.1 13.8
2017-Jul-13 15:00N 55°28' W 013°33'1 0.7 1017.8 13.8
2017-Jul-13 14:00N 55°28' W 013°34'1 0.7 1017.4 13.8
2017-Jul-13 13:00N 55°28' W 013°35'1 0.7 1016.9 13.7
2017-Jul-13 12:00N 55°28' W 013°37'1 0.9 1016.3 13.7
2017-Jul-13 11:00N 55°29' W 013°38'1 0.7 1016.0 13.7
2017-Jul-13 10:00N 55°29' W 013°39'1 0.9 1015.7 13.7
2017-Jul-13 09:00N 55°29' W 013°40'1 1.0 1015.5 13.7
2017-Jul-13 08:00N 55°29' W 013°42'1 1.0 1015.2 13.7
2017-Jul-13 07:00N 55°29' W 013°44'1 1.2 1015.1 13.8
2017-Jul-13 06:00N 55°30' W 013°46'1 1.0 1014.8 13.8
2017-Jul-13 05:00N 55°30' W 013°47'1 1.0 1014.8 13.9
2017-Jul-13 04:00N 55°30' W 013°49'1 0.9 1014.8 13.9
2017-Jul-13 03:00N 55°29' W 013°50'1 0.7 1014.9 13.9
2017-Jul-13 02:00N 55°29' W 013°52'0 0.3 1015.2 13.9
2017-Jul-13 01:00N 55°29' W 013°52'1 0.7 1015.7 13.8
2017-Jul-13 00:00N 55°29' W 013°53'0 0.3 1016.4 13.8
2017-Jul-12 23:00N 55°29' W 013°54'1 0.7 1016.8 13.7
2017-Jul-12 22:00N 55°29' W 013°55'1 0.7 1017.5 13.8
2017-Jul-12 21:00N 55°29' W 013°56'1 0.9 1017.4 13.9
2017-Jul-12 20:00N 55°29' W 013°58'1 0.7 1017.6 14.0
2017-Jul-12 19:00N 55°29' W 013°59'1 1.2 1017.9 14.3
2017-Jul-12 18:00N 55°28' W 014°01'1 0.7 1018.3 14.4
2017-Jul-12 17:00N 55°28' W 014°02'1 0.7 1018.7 14.4
2017-Jul-12 16:00N 55°28' W 014°03'1 0.7 1018.8 14.4
2017-Jul-12 15:00N 55°28' W 014°04'1 0.7 1019.1 14.4
2017-Jul-12 14:00N 55°28' W 014°05'1 0.7 1019.4 14.4
2017-Jul-12 13:00N 55°28' W 014°06'0 0.3 1019.5 14.4
2017-Jul-12 12:00N 55°28' W 014°07'1 0.7 1019.6 14.3
2017-Jul-12 11:00N 55°28' W 014°08'1 0.7 1019.4 14.3
2017-Jul-12 10:00N 55°28' W 014°09'0 0.3 1019.3 14.2
2017-Jul-12 09:00N 55°28' W 014°10'1 0.9 1019.2 14.2
2017-Jul-12 08:00N 55°27' W 014°11'0 0.3 1018.7 14.0
2017-Jul-12 07:00N 55°27' W 014°11'0 0.3 1018.4 13.9
2017-Jul-12 06:00N 55°27' W 014°12'1 0.9 1018.1 13.9
2017-Jul-12 05:00N 55°26' W 014°13'0 0.3 1017.9 13.9
2017-Jul-12 04:00N 55°26' W 014°14'   1017.7 13.9
Track history (hours):
 
Tides and Currents Weather Stations Pressure Air Temp Water Temp Dewpoint Dewpoint Depression Visibility Wind Speed Wind Dir Waves Ship Positions

Drifting buoy 47557

Last reported at 2017-Jul-22 04:00 UTC. Time now 2017-Jul-22 06:51 UTC.
Position N 55°05' W 011°01'.

Barometer 1005.7 mb
Water temperature 13.9 ° C

Date/timePositionNaut miles runAvg speedWind from/ knotsBaromVisibWave heightAir tempDewpointWater temp
2017-Jul-22 04:00N 55°05' W 011°01'1 0.7 1005.7 13.9
2017-Jul-22 03:00N 55°06' W 011°02'1 0.7 1005.6 13.9
2017-Jul-22 02:00N 55°07' W 011°02'1 0.3 1005.0 13.9
2017-Jul-22 00:00N 55°07' W 011°02'1 0.6 1004.4 13.9
2017-Jul-21 23:00N 55°08' W 011°02'0 0.0 1004.4 13.9
2017-Jul-21 22:00N 55°08' W 011°02'1 0.7 1004.1 13.9
2017-Jul-21 21:00N 55°08' W 011°02'1 0.9 1003.4 13.9
2017-Jul-21 20:00N 55°09' W 011°01'2 0.8 1002.6 13.9
2017-Jul-21 18:00N 55°10' W 010°59'2 1.0 1001.4 13.9
2017-Jul-21 16:00N 55°12' W 010°58'1 0.7 1000.9 13.9
2017-Jul-21 15:00N 55°13' W 010°57'1 1.2 1001.1 13.9
2017-Jul-21 14:00N 55°14' W 010°57'1 0.7 1001.1 13.9
2017-Jul-21 13:00N 55°14' W 010°56'1 1.2 1000.9 14.0
2017-Jul-21 12:00N 55°16' W 010°56'1 0.7 1000.9 14.0
2017-Jul-21 11:00N 55°16' W 010°57'1 0.6 1001.1 14.0
2017-Jul-21 10:00N 55°17' W 010°57'1 0.6 1001.2 14.0
2017-Jul-21 09:00N 55°17' W 010°57'1 0.6 1001.4 14.0
2017-Jul-21 08:00N 55°18' W 010°57'1 0.7 1001.6 14.0
2017-Jul-21 07:00N 55°19' W 010°56'1 0.7 1000.8 13.9
2017-Jul-21 06:00N 55°19' W 010°56'1 0.7 1000.5 13.9
2017-Jul-21 05:00N 55°20' W 010°55'0 0.3 1000.3 14.0
2017-Jul-21 04:00N 55°20' W 010°55'1 0.7 1000.0 14.0
2017-Jul-21 03:00N 55°20' W 010°54'1 1.2 1000.1 14.0
2017-Jul-21 02:00N 55°22' W 010°54'1 0.6 1000.4 14.0
2017-Jul-21 01:00N 55°22' W 010°54'1 1.2 1000.4 14.0
2017-Jul-21 00:00N 55°23' W 010°55'2 0.7 1000.6 14.0
2017-Jul-20 21:00N 55°25' W 010°56'0 0.3 1000.6 14.0
2017-Jul-20 20:00N 55°25' W 010°57'0 0.3 1000.5 14.1
2017-Jul-20 19:00N 55°25' W 010°58'1 0.7 1000.5 14.1
2017-Jul-20 18:00N 55°26' W 010°58'0 0.0 1000.6 14.1
2017-Jul-20 17:00N 55°26' W 010°58'0 0.3 1000.6 14.1
2017-Jul-20 16:00N 55°26' W 010°58'1 0.6 1000.8 14.1
2017-Jul-20 15:00N 55°26' W 010°58'1 0.6 1001.1 14.1
2017-Jul-20 14:00N 55°27' W 010°58'1 0.6 1001.3 14.0
2017-Jul-20 13:00N 55°28' W 010°58'1 0.7 1001.6 14.0
2017-Jul-20 12:00N 55°28' W 010°58'1 1.2 1001.9 14.0
2017-Jul-20 11:00N 55°29' W 010°58'1 1.4 1002.0 13.9
2017-Jul-20 10:00N 55°31' W 010°59'1 0.9 1002.0 13.9
2017-Jul-20 09:00N 55°31' W 011°01'1 1.4 1002.5 13.9
2017-Jul-20 08:00N 55°32' W 011°02'1 0.9 1002.6 13.8
2017-Jul-20 07:00N 55°33' W 011°03'0 0.3 1002.7 13.8
2017-Jul-20 06:00N 55°33' W 011°04'1 0.7 1002.8 13.8
2017-Jul-20 05:00N 55°34' W 011°04'0 0.3 1002.8 13.8
2017-Jul-20 04:00N 55°34' W 011°05'0 0.3 1002.7 13.8
2017-Jul-20 03:00N 55°34' W 011°05'1 0.7 1002.8 13.9
2017-Jul-20 02:00N 55°34' W 011°06'1 0.6 1003.3 13.9
2017-Jul-20 01:00N 55°35' W 011°06'1 0.6 1003.5 13.9
2017-Jul-20 00:00N 55°35' W 011°06'1 0.6 1003.3 13.9
2017-Jul-19 23:00N 55°36' W 011°06'1 1.2 1003.1 13.9
2017-Jul-19 22:00N 55°37' W 011°06'1 1.4 1002.8 14.0
2017-Jul-19 21:00N 55°38' W 011°07'1 1.2 1002.6 14.0
2017-Jul-19 20:00N 55°40' W 011°08'2 1.6 1002.0 14.0
2017-Jul-19 19:00N 55°41' W 011°10'1 1.4 1001.2 14.1
2017-Jul-19 18:00N 55°42' W 011°11'1 0.9 1000.2 14.1
2017-Jul-19 17:00N 55°43' W 011°12'1 0.7 999.2 14.1
2017-Jul-19 15:00N 55°43' W 011°14'1 0.7 997.4 14.2
2017-Jul-19 14:00N 55°44' W 011°15'1 0.7 996.2 14.2
2017-Jul-19 13:00N 55°44' W 011°14'1 0.6 996.1 14.2
2017-Jul-19 12:00N 55°45' W 011°14'1 0.7 996.7 14.2
2017-Jul-19 11:00N 55°46' W 011°15'1 0.7 997.4 14.2
2017-Jul-19 10:00N 55°46' W 011°16'1 0.7 998.0 14.2
2017-Jul-19 09:00N 55°47' W 011°16'1 0.7 998.5 14.2
2017-Jul-19 08:00N 55°47' W 011°17'0 0.3 999.1 14.1
2017-Jul-19 07:00N 55°47' W 011°17'0 0.3 999.4 14.1
2017-Jul-19 06:00N 55°47' W 011°18'1 0.7 999.5 14.1
2017-Jul-19 05:00N 55°48' W 011°19'0 0.2 1000.1 14.2
2017-Jul-19 03:00N 55°48' W 011°19'0 0.3 1001.4 14.2
2017-Jul-19 02:00N 55°48' W 011°20'1 0.6 1002.1 14.2
2017-Jul-19 01:00N 55°49' W 011°20'0 0.0 1002.7 14.2
2017-Jul-19 00:00N 55°49' W 011°20'0 0.0 1003.5 14.2
2017-Jul-18 23:00N 55°49' W 011°20'1 0.6 1004.0 14.3
2017-Jul-18 22:00N 55°49' W 011°20'1 0.6 1004.7 14.2
2017-Jul-18 21:00N 55°50' W 011°20'1 0.6 1005.6 14.3
2017-Jul-18 20:00N 55°50' W 011°20'1 0.7 1006.2 14.3
2017-Jul-18 18:00N 55°52' W 011°21'1 0.5 1007.2 14.3
2017-Jul-18 16:00N 55°52' W 011°23'0 0.3 1008.7 14.3
2017-Jul-18 15:00N 55°52' W 011°23'0 0.3 1009.4 14.3
2017-Jul-18 14:00N 55°52' W 011°24'0 0.0 1010.0 14.2
2017-Jul-18 13:00N 55°52' W 011°24'3 0.4 1010.7 14.2
2017-Jul-18 05:00N 55°53' W 011°28'0 0.3 1015.2 14.1
2017-Jul-18 04:00N 55°53' W 011°29'0 0.0 1015.8 14.1
2017-Jul-18 03:00N 55°53' W 011°29'0 0.3 1016.7 14.2
2017-Jul-18 02:00N 55°53' W 011°29'1 0.3 1017.5 14.2
2017-Jul-18 00:00N 55°53' W 011°30'1 0.6 1019.1 14.2
2017-Jul-17 23:00N 55°53' W 011°30'0 0.3 1019.5 14.3
2017-Jul-17 22:00N 55°53' W 011°31'0 0.3 1020.2 14.3
2017-Jul-17 21:00N 55°53' W 011°31'1 0.7 1020.8 14.3
2017-Jul-17 20:00N 55°54' W 011°32'0 0.3 1021.2 14.3
2017-Jul-17 19:00N 55°54' W 011°32'1 0.7 1021.6 14.4
2017-Jul-17 18:00N 55°54' W 011°34'0 0.3 1021.8 14.3
2017-Jul-17 17:00N 55°54' W 011°34'0 0.3 1022.2 14.2
2017-Jul-17 16:00N 55°54' W 011°35'0 0.3 1022.6 14.1
2017-Jul-17 15:00N 55°54' W 011°35'0 0.3 1022.9 14.0
2017-Jul-17 14:00N 55°54' W 011°36'0 0.2 1023.2 13.8
2017-Jul-17 12:00N 55°54' W 011°37'1 0.7 1023.2 13.8
2017-Jul-17 11:00N 55°55' W 011°37'0 0.3 1023.3 13.8
2017-Jul-17 10:00N 55°55' W 011°38'1 0.9 1023.4 13.7
2017-Jul-17 09:00N 55°55' W 011°39'1 0.7 1023.4 13.8
2017-Jul-17 08:00N 55°55' W 011°40'1 0.7 1023.3 13.8
2017-Jul-17 07:00N 55°55' W 011°41'1 0.7 1023.2 13.8
2017-Jul-17 06:00N 55°56' W 011°42'1 0.7 1022.8 13.8
2017-Jul-17 04:00N 55°56' W 011°44'1 0.7 1022.7 13.9
2017-Jul-17 03:00N 55°56' W 011°46'0 0.3 1022.6 13.9
2017-Jul-17 02:00N 55°56' W 011°46'1 0.9 1022.6 13.9
2017-Jul-17 01:00N 55°55' W 011°47'0 0.3 1022.7 13.9
2017-Jul-17 00:00N 55°55' W 011°48'0 0.3 1022.5 13.9
2017-Jul-16 23:00N 55°55' W 011°49'1 0.7 1022.4 13.9
2017-Jul-16 22:00N 55°55' W 011°50'0 0.3 1022.4 13.9
2017-Jul-16 21:00N 55°55' W 011°50'1 0.3 1022.3 13.9
2017-Jul-16 19:00N 55°55' W 011°52'1 0.9 1021.9 13.9
2017-Jul-16 18:00N 55°56' W 011°53'1 0.7 1021.8 13.9
2017-Jul-16 17:00N 55°56' W 011°54'1 0.7 1022.1 13.9
2017-Jul-16 16:00N 55°56' W 011°55'1 1.0 1022.1 14.0
2017-Jul-16 15:00N 55°56' W 011°57'1 0.7 1022.1 14.0
2017-Jul-16 14:00N 55°56' W 011°58'1 0.7 1022.0 14.0
2017-Jul-16 13:00N 55°56' W 011°59'1 0.7 1021.9 14.0
2017-Jul-16 12:00N 55°56' W 012°01'1 0.7 1021.5 14.0
2017-Jul-16 10:00N 55°55' W 012°03'1 0.7 1021.0 13.9
2017-Jul-16 09:00N 55°55' W 012°04'1 0.7 1020.9 13.9
2017-Jul-16 08:00N 55°55' W 012°05'1 0.7 1020.5 13.9
2017-Jul-16 07:00N 55°54' W 012°05'1 0.7 1020.0 13.9
2017-Jul-16 06:00N 55°54' W 012°07'0 0.3 1019.7 13.9
2017-Jul-16 05:00N 55°54' W 012°07'1 0.3 1019.2 13.8
2017-Jul-16 03:00N 55°54' W 012°08'1 0.7 1018.1 13.8
2017-Jul-16 02:00N 55°54' W 012°10'1 0.7 1017.7 13.8
2017-Jul-16 00:00N 55°53' W 012°12'1 0.9 1016.8 13.8
2017-Jul-15 23:00N 55°53' W 012°13'1 0.9 1016.5 13.8
2017-Jul-15 22:00N 55°52' W 012°14'1 0.7 1015.9 13.9
2017-Jul-15 21:00N 55°52' W 012°15'1 0.9 1015.5 13.9
2017-Jul-15 20:00N 55°51' W 012°16'1 0.7 1015.0 13.9
2017-Jul-15 19:00N 55°51' W 012°17'1 0.7 1014.6 13.9
2017-Jul-15 18:00N 55°50' W 012°18'1 0.7 1014.2 13.9
2017-Jul-15 17:00N 55°50' W 012°19'1 0.6 1013.7 13.9
2017-Jul-15 15:00N 55°50' W 012°21'1 0.9 1012.8 13.9
2017-Jul-15 14:00N 55°49' W 012°22'0 0.3 1012.1 13.8
2017-Jul-15 13:00N 55°49' W 012°23'1 0.7 1011.1 13.8
2017-Jul-15 12:00N 55°49' W 012°24'1 0.9 1010.1 13.8
2017-Jul-15 11:00N 55°49' W 012°25'1 0.7 1009.6 13.8
2017-Jul-15 10:00N 55°49' W 012°26'1 0.7 1008.0 13.7
2017-Jul-15 09:00N 55°48' W 012°27'1 0.9 1007.4 13.7
2017-Jul-15 08:00N 55°47' W 012°28'1 0.6 1006.4 13.7
2017-Jul-15 06:00N 55°47' W 012°30'2 0.8 1007.6 13.7
2017-Jul-15 03:00N 55°46' W 012°34'1 0.7 1009.9 13.8
2017-Jul-15 02:00N 55°45' W 012°34'1 0.9 1010.4 13.8
2017-Jul-15 01:00N 55°44' W 012°35'0 0.3 1011.4 13.8
2017-Jul-15 00:00N 55°44' W 012°36'3 0.9 1011.8 13.8
2017-Jul-14 21:00N 55°43' W 012°40'1 0.9 1011.8 13.7
2017-Jul-14 20:00N 55°43' W 012°41'1 1.2 1011.2 13.7
2017-Jul-14 19:00N 55°42' W 012°43'1 0.9 1011.6 13.7
2017-Jul-14 18:00N 55°41' W 012°44'1 0.9 1011.3 13.7
2017-Jul-14 17:00N 55°41' W 012°46'1 1.2 1011.6 13.7
2017-Jul-14 16:00N 55°40' W 012°47'1 0.9 1011.9 13.7
2017-Jul-14 15:00N 55°40' W 012°49'1 0.9 1012.2 13.7
2017-Jul-14 14:00N 55°39' W 012°50'1 1.2 1012.3 13.7
2017-Jul-14 13:00N 55°38' W 012°52'1 0.9 1012.8 13.7
2017-Jul-14 12:00N 55°38' W 012°53'2 1.2 1013.2 13.7
2017-Jul-14 10:00N 55°36' W 012°56'1 1.4 1014.7 13.7
2017-Jul-14 09:00N 55°36' W 012°58'1 1.2 1015.2 13.7
2017-Jul-14 08:00N 55°35' W 013°00'1 1.5 1015.9 13.7
2017-Jul-14 07:00N 55°35' W 013°02'2 1.8 1016.4 13.8
2017-Jul-14 06:00N 55°34' W 013°05'1 1.5 1017.1 13.8
2017-Jul-14 05:00N 55°33' W 013°07'2 1.8 1017.8 13.9
2017-Jul-14 04:00N 55°32' W 013°10'1 1.2 1018.2 13.9
2017-Jul-14 03:00N 55°31' W 013°11'1 0.9 1018.8 13.9
2017-Jul-14 02:00N 55°31' W 013°13'1 0.9 1019.1 13.9
2017-Jul-14 01:00N 55°30' W 013°14'1 0.7 1019.6 13.9
2017-Jul-14 00:00N 55°30' W 013°15'1 1.2 1019.8 13.9
2017-Jul-13 23:00N 55°29' W 013°17'1 1.0 1019.6 13.8
2017-Jul-13 22:00N 55°29' W 013°19'1 1.0 1019.4 13.8
2017-Jul-13 21:00N 55°29' W 013°20'1 1.4 1019.0 13.8
2017-Jul-13 20:00N 55°29' W 013°23'1 1.0 1018.8 13.7
2017-Jul-13 19:00N 55°29' W 013°25'1 1.4 1018.5 13.7
2017-Jul-13 18:00N 55°29' W 013°27'1 1.5 1018.1 13.7
2017-Jul-13 17:00N 55°29' W 013°29'1 1.0 1018.1 13.7
2017-Jul-13 16:00N 55°29' W 013°31'1 1.2 1018.1 13.8
2017-Jul-13 15:00N 55°28' W 013°33'1 0.7 1017.8 13.8
2017-Jul-13 14:00N 55°28' W 013°34'1 0.7 1017.4 13.8
2017-Jul-13 13:00N 55°28' W 013°35'1 0.7 1016.9 13.7
2017-Jul-13 12:00N 55°28' W 013°37'1 0.9 1016.3 13.7
2017-Jul-13 11:00N 55°29' W 013°38'1 0.7 1016.0 13.7
2017-Jul-13 10:00N 55°29' W 013°39'1 0.9 1015.7 13.7
2017-Jul-13 09:00N 55°29' W 013°40'1 1.0 1015.5 13.7
2017-Jul-13 08:00N 55°29' W 013°42'1 1.0 1015.2 13.7
2017-Jul-13 07:00N 55°29' W 013°44'1 1.2 1015.1 13.8
2017-Jul-13 06:00N 55°30' W 013°46'1 1.0 1014.8 13.8
2017-Jul-13 05:00N 55°30' W 013°47'1 1.0 1014.8 13.9
2017-Jul-13 04:00N 55°30' W 013°49'1 0.9 1014.8 13.9
2017-Jul-13 03:00N 55°29' W 013°50'1 0.7 1014.9 13.9
2017-Jul-13 02:00N 55°29' W 013°52'0 0.3 1015.2 13.9
2017-Jul-13 01:00N 55°29' W 013°52'1 0.7 1015.7 13.8
2017-Jul-13 00:00N 55°29' W 013°53'0 0.3 1016.4 13.8
2017-Jul-12 23:00N 55°29' W 013°54'1 0.7 1016.8 13.7
2017-Jul-12 22:00N 55°29' W 013°55'1 0.7 1017.5 13.8
2017-Jul-12 21:00N 55°29' W 013°56'1 0.9 1017.4 13.9
2017-Jul-12 20:00N 55°29' W 013°58'1 0.7 1017.6 14.0
2017-Jul-12 19:00N 55°29' W 013°59'1 1.2 1017.9 14.3
2017-Jul-12 18:00N 55°28' W 014°01'1 0.7 1018.3 14.4
2017-Jul-12 17:00N 55°28' W 014°02'1 0.7 1018.7 14.4
2017-Jul-12 16:00N 55°28' W 014°03'1 0.7 1018.8 14.4
2017-Jul-12 15:00N 55°28' W 014°04'1 0.7 1019.1 14.4
2017-Jul-12 14:00N 55°28' W 014°05'1 0.7 1019.4 14.4
2017-Jul-12 13:00N 55°28' W 014°06'0 0.3 1019.5 14.4
2017-Jul-12 12:00N 55°28' W 014°07'1 0.7 1019.6 14.3
2017-Jul-12 11:00N 55°28' W 014°08'1 0.7 1019.4 14.3
2017-Jul-12 10:00N 55°28' W 014°09'0 0.3 1019.3 14.2
2017-Jul-12 09:00N 55°28' W 014°10'1 0.9 1019.2 14.2
2017-Jul-12 08:00N 55°27' W 014°11'0 0.3 1018.7 14.0
2017-Jul-12 07:00N 55°27' W 014°11'0 0.3 1018.4 13.9
2017-Jul-12 06:00N 55°27' W 014°12'1 0.9 1018.1 13.9
2017-Jul-12 05:00N 55°26' W 014°13'0 0.3 1017.9 13.9
2017-Jul-12 04:00N 55°26' W 014°14'   1017.7 13.9

Dump ship's entire track history